createdAt,value
2018-12-27T00:01:50.741Z,24.30
2018-12-27T00:04:19.820Z,19.27
2018-12-27T00:06:48.912Z,23.53
2018-12-27T00:09:17.994Z,22.17
2018-12-27T00:11:47.024Z,21.13
2018-12-27T00:14:16.150Z,25.93
2018-12-27T00:16:45.221Z,23.77
2018-12-27T00:19:14.491Z,24.10
2018-12-27T00:21:43.346Z,22.73
2018-12-27T00:24:12.409Z,18.20
2018-12-27T00:26:41.475Z,24.23
2018-12-27T00:29:10.783Z,15.20
2018-12-27T00:31:39.618Z,19.60
2018-12-27T00:34:08.708Z,20.93
2018-12-27T00:36:37.808Z,15.47
2018-12-27T00:39:06.890Z,19.67
2018-12-27T00:41:35.936Z,21.33
2018-12-27T00:44:05.046Z,15.83
2018-12-27T00:46:34.109Z,18.30
2018-12-27T00:49:03.207Z,14.23
2018-12-27T00:51:32.276Z,23.60
2018-12-27T00:54:01.374Z,14.17
2018-12-27T00:56:30.452Z,17.47
2018-12-27T00:58:59.592Z,16.40
2018-12-27T01:01:28.657Z,12.73
2018-12-27T01:03:57.745Z,16.33
2018-12-27T01:06:26.847Z,19.87
2018-12-27T01:08:55.905Z,20.07
2018-12-27T01:11:24.940Z,21.30
2018-12-27T01:13:54.031Z,23.43
2018-12-27T01:16:23.062Z,21.53
2018-12-27T01:18:52.131Z,19.33
2018-12-27T01:21:21.255Z,18.20
2018-12-27T01:23:50.332Z,22.23
2018-12-27T01:26:19.377Z,28.67
2018-12-27T01:28:48.493Z,24.57
2018-12-27T01:31:17.535Z,22.47
2018-12-27T01:33:46.603Z,21.83
2018-12-27T01:36:15.666Z,26.53
2018-12-27T01:38:44.980Z,25.27
2018-12-27T01:41:13.804Z,23.33
2018-12-27T01:43:42.974Z,31.03
2018-12-27T01:46:12.014Z,21.23
2018-12-27T01:48:41.103Z,26.63
2018-12-27T01:51:10.179Z,27.50
2018-12-27T01:53:39.262Z,21.07
2018-12-27T01:56:08.295Z,20.43
2018-12-27T01:58:37.407Z,23.47
2018-12-27T02:01:06.455Z,22.03
2018-12-27T02:03:35.545Z,19.93
2018-12-27T02:06:04.617Z,23.67
2018-12-27T02:08:33.688Z,19.43
2018-12-27T02:11:02.733Z,24.83
2018-12-27T02:13:31.847Z,20.47
2018-12-27T02:16:00.896Z,20.57
2018-12-27T02:18:29.963Z,22.23
2018-12-27T02:20:59.039Z,18.30
2018-12-27T02:23:28.109Z,18.10
2018-12-27T02:25:57.143Z,16.77
2018-12-27T02:28:26.355Z,17.07
2018-12-27T02:30:55.403Z,15.70
2018-12-27T02:33:24.588Z,21.30
2018-12-27T02:35:53.636Z,22.03
2018-12-27T02:38:22.706Z,17.90
2018-12-27T02:40:51.727Z,12.13
2018-12-27T02:43:21.025Z,15.53
2018-12-27T02:45:49.848Z,13.97
2018-12-27T02:48:18.923Z,14.70
2018-12-27T02:50:48.071Z,15.60
2018-12-27T02:53:17.350Z,13.93
2018-12-27T02:55:46.174Z,12.83
2018-12-27T02:58:15.341Z,13.93
2018-12-27T03:00:44.366Z,13.63
2018-12-27T03:03:13.639Z,12.20
2018-12-27T03:05:42.520Z,12.73
2018-12-27T03:08:11.552Z,12.37
2018-12-27T03:10:40.600Z,10.03
2018-12-27T03:13:09.716Z,8.80
2018-12-27T03:15:38.746Z,8.07
2018-12-27T03:18:07.795Z,8.37
2018-12-27T03:20:36.870Z,9.60
2018-12-27T03:23:05.942Z,7.33
2018-12-27T03:25:34.947Z,6.63
2018-12-27T03:28:04.037Z,7.80
2018-12-27T03:30:33.063Z,7.03
2018-12-27T03:33:02.122Z,9.47
2018-12-27T03:35:31.233Z,9.93
2018-12-27T03:38:00.282Z,8.00
2018-12-27T03:40:29.454Z,8.37
2018-12-27T03:42:58.410Z,9.43
2018-12-27T03:45:27.447Z,8.60
2018-12-27T03:47:56.486Z,8.07
2018-12-27T03:50:25.559Z,7.33
2018-12-27T03:52:54.597Z,6.37
2018-12-27T03:55:23.645Z,5.93
2018-12-27T03:57:52.794Z,5.73
2018-12-27T04:00:21.837Z,5.67
2018-12-27T04:02:50.880Z,5.80
2018-12-27T04:05:19.949Z,7.47
2018-12-27T04:07:48.990Z,7.13
2018-12-27T04:10:18.019Z,6.40
2018-12-27T04:12:47.095Z,7.17
2018-12-27T04:15:16.149Z,5.97
2018-12-27T04:17:45.187Z,6.73
2018-12-27T04:20:14.275Z,5.53
2018-12-27T04:22:43.340Z,6.20
2018-12-27T04:25:12.379Z,4.07
2018-12-27T04:27:41.454Z,6.57
2018-12-27T04:30:10.502Z,6.33
2018-12-27T04:32:39.550Z,6.53
2018-12-27T04:35:08.622Z,6.57
2018-12-27T04:37:37.693Z,6.90
2018-12-27T04:40:06.738Z,7.53
2018-12-27T04:42:35.820Z,9.63
2018-12-27T04:45:04.863Z,8.97
2018-12-27T04:47:33.909Z,10.23
2018-12-27T04:50:02.984Z,12.07
2018-12-27T04:52:32.034Z,17.57
2018-12-27T04:55:01.341Z,14.00
2018-12-27T04:57:30.493Z,16.10
2018-12-27T04:59:59.550Z,18.73
2018-12-27T05:02:28.610Z,18.47
2018-12-27T05:04:57.737Z,23.13
2018-12-27T05:07:26.803Z,19.87
2018-12-27T05:09:55.835Z,16.97
2018-12-27T05:12:24.934Z,17.00
2018-12-27T05:14:53.969Z,21.37
2018-12-27T05:17:23.044Z,23.63
2018-12-27T05:19:52.117Z,22.37
2018-12-27T05:22:21.192Z,18.97
2018-12-27T05:24:50.238Z,20.73
2018-12-27T05:27:19.604Z,18.27
2018-12-27T05:29:48.439Z,20.33
2018-12-27T05:32:17.507Z,20.83
2018-12-27T05:34:46.809Z,19.37
2018-12-27T05:37:15.859Z,16.70
2018-12-27T05:39:44.911Z,19.97
2018-12-27T05:42:14.018Z,20.40
2018-12-27T05:44:43.112Z,15.53
2018-12-27T05:47:12.120Z,15.53
2018-12-27T05:49:41.220Z,15.93
2018-12-27T05:52:10.292Z,16.57
2018-12-27T05:54:39.336Z,17.93
2018-12-27T05:57:08.423Z,16.77
2018-12-27T05:59:37.464Z,14.50
2018-12-27T06:02:06.520Z,18.33
2018-12-27T06:04:35.602Z,18.53
2018-12-27T06:07:04.659Z,20.37
2018-12-27T06:09:33.710Z,23.33
2018-12-27T06:12:03.085Z,21.40
2018-12-27T06:14:32.168Z,25.20
2018-12-27T06:17:01.215Z,21.27
2018-12-27T06:19:30.294Z,21.33
2018-12-27T06:21:59.359Z,19.67
2018-12-27T06:24:28.397Z,18.20
2018-12-27T06:26:57.494Z,15.27
2018-12-27T06:29:26.544Z,17.10
2018-12-27T06:31:55.621Z,17.80
2018-12-27T06:34:24.708Z,16.83
2018-12-27T06:36:53.780Z,13.73
2018-12-27T06:39:22.823Z,15.33
2018-12-27T06:41:51.919Z,16.63
2018-12-27T06:44:20.941Z,15.43
2018-12-27T06:46:50.021Z,14.47
2018-12-27T06:49:19.300Z,11.43
2018-12-27T06:51:48.357Z,17.37
2018-12-27T06:54:17.407Z,13.43
2018-12-27T06:56:46.574Z,12.40
2018-12-27T06:59:15.590Z,12.03
2018-12-27T07:01:44.640Z,12.23
2018-12-27T07:04:13.712Z,14.20
2018-12-27T07:06:42.754Z,10.70
2018-12-27T07:09:11.806Z,9.73
2018-12-27T07:11:40.878Z,9.47
2018-12-27T07:14:09.919Z,8.37
2018-12-27T07:16:38.966Z,11.43
2018-12-27T07:19:08.147Z,9.37
2018-12-27T07:21:37.195Z,11.27
2018-12-27T07:24:06.251Z,9.37
2018-12-27T07:26:35.340Z,13.83
2018-12-27T07:29:04.375Z,9.13
2018-12-27T07:31:33.429Z,10.83
2018-12-27T07:34:02.509Z,11.33
2018-12-27T07:36:31.799Z,11.80
2018-12-27T07:39:00.619Z,11.53
2018-12-27T07:41:29.730Z,9.80
2018-12-27T07:43:58.839Z,11.37
2018-12-27T07:46:27.840Z,11.50
2018-12-27T07:48:56.935Z,8.13
2018-12-27T07:51:26.011Z,10.43
2018-12-27T07:53:55.033Z,9.60
2018-12-27T07:56:24.115Z,11.20
2018-12-27T07:58:53.156Z,11.13
2018-12-27T08:01:22.234Z,10.97
2018-12-27T08:03:51.310Z,14.70
2018-12-27T08:06:20.588Z,14.00
2018-12-27T08:08:49.420Z,13.97
2018-12-27T08:11:18.519Z,13.93
2018-12-27T08:13:47.565Z,17.23
2018-12-27T08:16:16.634Z,15.53
2018-12-27T08:18:45.757Z,15.83
2018-12-27T08:21:15.057Z,15.40
2018-12-27T08:23:44.117Z,13.80
2018-12-27T08:26:13.256Z,14.33
2018-12-27T08:28:42.314Z,15.87
2018-12-27T08:31:11.365Z,14.83
2018-12-27T08:33:40.452Z,18.37
2018-12-27T08:36:09.545Z,14.33
2018-12-27T08:38:38.566Z,15.53
2018-12-27T08:41:07.892Z,15.10
2018-12-27T08:43:36.703Z,13.73
2018-12-27T08:46:05.977Z,13.83
2018-12-27T08:48:35.086Z,12.50
2018-12-27T08:51:04.159Z,10.87
2018-12-27T08:53:33.191Z,12.30
2018-12-27T08:56:02.579Z,12.73
2018-12-27T08:58:31.627Z,13.07
2018-12-27T09:01:00.667Z,11.57
2018-12-27T09:03:29.753Z,22.33
2018-12-27T09:05:58.820Z,17.97
2018-12-27T09:08:27.867Z,15.70
2018-12-27T09:10:56.998Z,15.77
2018-12-27T09:13:26.040Z,12.47
2018-12-27T09:15:55.113Z,10.40
2018-12-27T09:18:24.313Z,11.73
2018-12-27T09:20:53.389Z,15.03
2018-12-27T09:23:22.446Z,9.80
2018-12-27T09:25:51.517Z,9.73
2018-12-27T09:28:20.572Z,10.70
2018-12-27T09:30:49.618Z,7.97
2018-12-27T09:33:18.716Z,10.03
2018-12-27T09:35:47.766Z,12.67
2018-12-27T09:38:16.827Z,15.87
2018-12-27T09:40:45.901Z,11.67
2018-12-27T09:43:14.947Z,10.13
2018-12-27T09:45:43.994Z,15.13
2018-12-27T09:48:13.074Z,18.33
2018-12-27T09:50:42.119Z,14.90
2018-12-27T09:53:11.154Z,15.47
2018-12-27T09:55:40.604Z,15.37
2018-12-27T09:58:09.654Z,23.13
2018-12-27T10:00:39.869Z,36.53
2018-12-27T10:03:07.788Z,31.90
2018-12-27T10:05:36.844Z,20.23
2018-12-27T10:08:05.896Z,21.33
2018-12-27T10:10:35.305Z,18.47
2018-12-27T10:13:04.363Z,16.70
2018-12-27T10:15:33.436Z,17.53
2018-12-27T10:18:02.746Z,15.27
2018-12-27T10:20:31.800Z,13.40
2018-12-27T10:23:00.857Z,15.63
2018-12-27T10:25:29.948Z,13.77
2018-12-27T10:27:59.008Z,13.13
2018-12-27T10:30:28.058Z,11.33
2018-12-27T10:32:57.135Z,11.90
2018-12-27T10:35:26.193Z,11.57
2018-12-27T10:37:55.260Z,8.20
2018-12-27T10:40:24.353Z,8.87
2018-12-27T10:42:53.392Z,9.30
2018-12-27T10:45:22.442Z,10.63
2018-12-27T10:47:51.516Z,8.43
2018-12-27T10:50:20.579Z,12.00
2018-12-27T10:52:49.636Z,13.73
2018-12-27T10:55:18.826Z,17.50
2018-12-27T10:57:47.879Z,16.87
2018-12-27T11:00:16.931Z,26.70
2018-12-27T11:02:46.049Z,18.63
2018-12-27T11:05:15.391Z,13.47
2018-12-27T11:07:44.464Z,18.43
2018-12-27T11:10:13.550Z,19.63
2018-12-27T11:12:42.608Z,15.67
2018-12-27T11:15:11.677Z,17.10
2018-12-27T11:17:40.761Z,13.33
2018-12-27T11:20:09.814Z,10.37
2018-12-27T11:22:38.869Z,10.07
2018-12-27T11:25:07.968Z,11.23
2018-12-27T11:27:37.021Z,18.10
2018-12-27T11:30:06.079Z,12.50
2018-12-27T11:32:35.160Z,15.87
2018-12-27T11:35:04.211Z,11.17
2018-12-27T11:37:33.299Z,12.00
2018-12-27T11:40:02.387Z,11.40
2018-12-27T11:42:31.455Z,13.37
2018-12-27T11:45:00.509Z,11.20
2018-12-27T11:47:29.592Z,13.30
2018-12-27T11:49:58.787Z,12.17
2018-12-27T11:52:27.855Z,11.27
2018-12-27T11:54:56.959Z,10.10
2018-12-27T11:57:26.016Z,12.40
2018-12-27T11:59:55.074Z,14.00
2018-12-27T12:02:30.897Z,13.57
2018-12-27T12:04:53.228Z,10.77
2018-12-27T12:07:22.297Z,20.57
2018-12-27T12:09:51.401Z,11.23
2018-12-27T12:12:20.449Z,8.63
2018-12-27T12:14:49.527Z,9.67
2018-12-27T12:17:18.600Z,10.27
2018-12-27T12:19:47.668Z,20.00
2018-12-27T12:22:16.732Z,33.27
2018-12-27T12:24:45.826Z,30.90
2018-12-27T12:27:14.880Z,32.60
2018-12-27T12:29:44.290Z,20.97
2018-12-27T12:32:13.407Z,18.70
2018-12-27T12:34:42.453Z,20.23
2018-12-27T12:37:14.212Z,21.07
2018-12-27T12:39:40.582Z,20.83
2018-12-27T12:42:09.638Z,23.63
2018-12-27T12:44:38.696Z,16.80
2018-12-27T12:47:07.777Z,10.77
2018-12-27T12:49:36.816Z,10.80
2018-12-27T12:52:05.872Z,15.57
2018-12-27T12:54:34.980Z,22.47
2018-12-27T12:57:04.032Z,16.60
2018-12-27T12:59:33.082Z,22.50
2018-12-27T13:02:02.172Z,30.50
2018-12-27T13:04:31.225Z,30.47
2018-12-27T13:07:00.505Z,75.33
2018-12-27T13:09:30.341Z,37.30
2018-12-27T13:11:59.387Z,38.17
2018-12-27T13:14:28.445Z,41.73
2018-12-27T13:16:57.678Z,37.53
2018-12-27T13:19:26.733Z,36.80
2018-12-27T13:21:55.793Z,38.83
2018-12-27T13:24:24.874Z,55.23
2018-12-27T13:26:53.932Z,35.92
2018-12-27T13:29:22.991Z,37.27
2018-12-27T13:31:52.100Z,43.17
2018-12-27T13:34:21.158Z,32.30
2018-12-27T13:36:50.235Z,35.95
2018-12-27T13:39:19.320Z,34.73
2018-12-27T13:41:48.407Z,43.07
2018-12-27T13:44:17.463Z,71.63
2018-12-27T13:46:46.577Z,26.23
2018-12-27T13:49:15.615Z,40.30
2018-12-27T13:51:44.654Z,34.33
2018-12-27T13:54:13.784Z,34.80
2018-12-27T13:56:42.851Z,34.00
2018-12-27T13:59:11.914Z,31.47
2018-12-27T14:01:41.044Z,47.27
2018-12-27T14:04:10.117Z,48.53
2018-12-27T14:06:39.176Z,31.00
2018-12-27T14:09:08.261Z,37.30
2018-12-27T14:11:37.334Z,38.53
2018-12-27T14:14:06.387Z,46.90
2018-12-27T14:16:35.489Z,46.70
2018-12-27T14:19:04.525Z,45.67
2018-12-27T14:21:33.611Z,24.23
2018-12-27T14:24:02.878Z,30.73
2018-12-27T14:26:31.916Z,34.73
2018-12-27T14:29:00.997Z,23.57
2018-12-27T14:31:30.062Z,22.77
2018-12-27T14:33:59.110Z,23.20
2018-12-27T14:36:45.014Z,27.23
2018-12-27T14:39:14.072Z,23.20
2018-12-27T14:41:43.140Z,34.07
2018-12-27T14:44:12.239Z,32.20
2018-12-27T14:46:41.294Z,31.37
2018-12-27T14:49:10.361Z,36.63
2018-12-27T14:51:39.438Z,35.33
2018-12-27T14:54:08.493Z,28.70
2018-12-27T14:56:37.547Z,27.77
2018-12-27T14:59:06.883Z,30.93
2018-12-27T15:01:35.941Z,29.77
2018-12-27T15:04:04.997Z,37.33
2018-12-27T15:06:34.135Z,34.73
2018-12-27T15:09:03.199Z,29.97
2018-12-27T15:11:32.250Z,23.08
2018-12-27T15:14:01.317Z,21.37
2018-12-27T15:16:30.370Z,22.60
2018-12-27T15:18:59.427Z,25.57
2018-12-27T15:21:28.533Z,23.17
2018-12-27T15:23:57.584Z,28.87
2018-12-27T15:26:26.649Z,38.37
2018-12-27T15:28:55.764Z,32.77
2018-12-27T15:31:24.828Z,23.70
2018-12-27T15:33:53.894Z,21.33
2018-12-27T15:36:22.979Z,20.10
2018-12-27T15:38:52.045Z,21.07
2018-12-27T15:41:21.104Z,21.33
2018-12-27T15:43:50.192Z,18.07
2018-12-27T15:46:19.262Z,19.50
2018-12-27T15:48:48.323Z,15.27
2018-12-27T15:51:17.454Z,14.97
2018-12-27T15:53:46.511Z,12.83
2018-12-27T15:56:15.566Z,14.37
2018-12-27T15:58:44.646Z,17.53
2018-12-27T16:01:13.694Z,16.17
2018-12-27T16:03:42.761Z,25.80
2018-12-27T16:06:11.848Z,19.83
2018-12-27T16:08:40.906Z,20.23
2018-12-27T16:11:09.956Z,17.33
2018-12-27T16:13:39.162Z,20.43
2018-12-27T16:16:08.246Z,17.50
2018-12-27T16:18:37.304Z,22.87
2018-12-27T16:21:06.391Z,23.60
2018-12-27T16:23:35.725Z,17.53
2018-12-27T16:26:04.783Z,18.53
2018-12-27T16:28:33.867Z,23.73
2018-12-27T16:31:02.933Z,19.37
2018-12-27T16:33:31.981Z,18.43
2018-12-27T16:36:01.122Z,21.10
2018-12-27T16:38:30.179Z,29.13
2018-12-27T16:40:59.246Z,25.93
2018-12-27T16:43:28.316Z,27.83
2018-12-27T16:45:57.373Z,26.90
2018-12-27T16:48:26.435Z,32.63
2018-12-27T16:50:55.519Z,32.53
2018-12-27T16:53:24.572Z,28.40
2018-12-27T16:55:53.628Z,33.17
2018-12-27T16:58:23.995Z,32.60
2018-12-27T17:00:52.957Z,28.13
2018-12-27T17:03:22.025Z,28.07
2018-12-27T17:05:51.117Z,27.90
2018-12-27T17:08:20.218Z,34.20
2018-12-27T17:10:49.263Z,40.87
2018-12-27T17:13:18.440Z,31.63
2018-12-27T17:15:47.505Z,18.63
2018-12-27T17:18:16.577Z,23.33
2018-12-27T17:20:45.799Z,20.90
2018-12-27T17:23:14.879Z,27.07
2018-12-27T17:25:44.089Z,29.50
2018-12-27T17:28:14.082Z,30.17
2018-12-27T17:30:43.183Z,36.03
2018-12-27T17:33:13.395Z,25.73
2018-12-27T17:35:43.638Z,25.30
2018-12-27T17:38:12.730Z,21.00
2018-12-27T17:40:42.200Z,21.80
2018-12-27T17:43:11.456Z,23.30
2018-12-27T17:45:40.635Z,22.47
2018-12-27T17:48:09.780Z,22.67
2018-12-27T17:50:39.013Z,23.87
2018-12-27T17:53:09.681Z,24.00
2018-12-27T17:55:37.654Z,20.40
2018-12-27T17:58:06.790Z,20.77
2018-12-27T18:00:35.939Z,19.57
2018-12-27T18:03:06.207Z,20.40
2018-12-27T18:05:35.903Z,20.40
2018-12-27T18:08:05.297Z,21.50
2018-12-27T18:10:34.224Z,21.23
2018-12-27T18:13:03.437Z,23.57
2018-12-27T18:15:32.841Z,33.80
2018-12-27T18:18:01.813Z,25.37
2018-12-27T18:20:31.013Z,24.33
2018-12-27T18:23:00.377Z,32.67
2018-12-27T18:25:29.379Z,39.07
2018-12-27T18:27:58.667Z,63.83
2018-12-27T18:30:27.713Z,48.30
2018-12-27T18:32:56.821Z,38.73
2018-12-27T18:35:25.892Z,63.73
2018-12-27T18:37:55.055Z,50.13
2018-12-27T18:40:24.025Z,39.33
2018-12-27T18:42:53.119Z,53.10
2018-12-27T18:45:22.166Z,51.90
2018-12-27T18:47:51.236Z,31.23
2018-12-27T18:50:20.349Z,33.17
2018-12-27T18:52:50.390Z,34.20
2018-12-27T18:55:20.251Z,60.90
2018-12-27T18:57:48.532Z,41.37
2018-12-27T19:00:17.594Z,33.23
2018-12-27T19:02:46.691Z,33.87
2018-12-27T19:05:16.005Z,37.17
2018-12-27T19:07:45.272Z,43.60
2018-12-27T19:10:14.000Z,41.93
2018-12-27T19:12:58.541Z,36.70
2018-12-27T19:15:27.590Z,32.03
2018-12-27T19:17:56.666Z,24.65
2018-12-27T19:20:25.752Z,28.47
2018-12-27T19:22:54.816Z,27.50
2018-12-27T19:25:23.888Z,24.93
2018-12-27T19:27:53.190Z,29.83
2018-12-27T19:30:22.253Z,29.63
2018-12-27T19:32:51.320Z,24.77
2018-12-27T19:35:20.405Z,21.07
2018-12-27T19:37:52.206Z,20.43
2018-12-27T19:40:18.533Z,19.87
2018-12-27T19:42:47.647Z,20.20
2018-12-27T19:45:16.728Z,22.27
2018-12-27T19:47:45.776Z,22.27
2018-12-27T19:50:14.885Z,23.27
2018-12-27T19:52:43.958Z,23.90
2018-12-27T19:55:13.022Z,22.03
2018-12-27T19:57:42.110Z,24.50
2018-12-27T20:00:11.168Z,27.87
2018-12-27T20:02:41.278Z,22.30
2018-12-27T20:05:11.254Z,22.30
2018-12-27T20:07:40.379Z,24.40
2018-12-27T20:10:09.528Z,19.93
2018-12-27T20:12:38.723Z,21.57
2018-12-27T20:15:07.845Z,20.93
2018-12-27T20:17:37.064Z,19.17
2018-12-27T20:20:06.294Z,19.70
2018-12-27T20:22:36.437Z,19.97
2018-12-27T20:25:05.669Z,19.20
2018-12-27T20:27:34.855Z,17.37
2018-12-27T20:30:03.996Z,21.97
2018-12-27T20:32:33.089Z,16.13
2018-12-27T20:35:02.184Z,16.67
2018-12-27T20:37:31.444Z,13.47
2018-12-27T20:40:00.598Z,13.67
2018-12-27T20:42:29.749Z,13.70
2018-12-27T20:44:58.905Z,18.70
2018-12-27T20:47:27.996Z,11.00
2018-12-27T20:49:57.169Z,15.10
2018-12-27T20:52:26.228Z,13.53
2018-12-27T20:54:55.288Z,17.57
2018-12-27T20:57:24.446Z,13.33
2018-12-27T20:59:53.477Z,14.20
2018-12-27T21:02:22.765Z,15.63
2018-12-27T21:04:51.631Z,13.23
2018-12-27T21:07:21.054Z,16.60
2018-12-27T21:09:50.013Z,13.03
2018-12-27T21:12:19.183Z,10.57
2018-12-27T21:14:48.253Z,16.27
2018-12-27T21:17:17.337Z,14.87
2018-12-27T21:19:46.445Z,14.03
2018-12-27T21:22:15.573Z,12.93
2018-12-27T21:24:44.650Z,10.07
2018-12-27T21:27:14.114Z,12.17
2018-12-27T21:29:43.178Z,10.93
2018-12-27T21:32:12.286Z,19.27
2018-12-27T21:34:41.399Z,14.10
2018-12-27T21:37:10.468Z,14.63
2018-12-27T21:39:39.640Z,13.97
2018-12-27T21:42:08.756Z,14.03
2018-12-27T21:44:37.849Z,18.15
2018-12-27T21:47:06.922Z,10.53
2018-12-27T21:49:36.013Z,13.45
2018-12-27T21:52:05.085Z,19.37
2018-12-27T21:54:34.184Z,12.13
2018-12-27T21:57:03.283Z,12.50
2018-12-27T21:59:32.379Z,10.27
2018-12-27T22:02:01.458Z,15.97
2018-12-27T22:04:30.557Z,8.23
2018-12-27T22:06:59.617Z,11.95
2018-12-27T22:09:28.702Z,11.53
2018-12-27T22:11:57.845Z,11.37
2018-12-27T22:14:26.934Z,12.47
2018-12-27T22:16:56.035Z,10.27
2018-12-27T22:19:25.172Z,7.53
2018-12-27T22:21:54.233Z,8.60
2018-12-27T22:24:23.309Z,7.60
2018-12-27T22:26:52.411Z,8.47
2018-12-27T22:29:21.465Z,10.68
2018-12-27T22:31:50.952Z,11.60
2018-12-27T22:34:19.637Z,10.30
2018-12-27T22:36:48.700Z,9.43
2018-12-27T22:39:17.758Z,10.03
2018-12-27T22:41:47.102Z,10.57
2018-12-27T22:44:16.182Z,12.40
2018-12-27T22:46:45.236Z,11.13
2018-12-27T22:49:14.331Z,9.27
2018-12-27T22:51:43.363Z,9.33
2018-12-27T22:54:12.473Z,10.43
2018-12-27T22:56:41.531Z,8.20
2018-12-27T22:59:10.587Z,9.53
2018-12-27T23:01:39.655Z,9.03
2018-12-27T23:04:08.937Z,9.10
2018-12-27T23:06:38.013Z,8.30
2018-12-27T23:09:07.068Z,7.67
2018-12-27T23:11:36.154Z,7.23
2018-12-27T23:14:05.234Z,8.37
2018-12-27T23:16:34.286Z,7.53
2018-12-27T23:19:03.373Z,8.15
2018-12-27T23:21:32.432Z,8.83
2018-12-27T23:24:01.480Z,6.47
2018-12-27T23:26:30.598Z,7.40
2018-12-27T23:28:59.645Z,7.67
2018-12-27T23:31:28.709Z,8.97
2018-12-27T23:33:57.794Z,8.20
2018-12-27T23:36:26.831Z,7.13
2018-12-27T23:38:55.902Z,6.80
2018-12-27T23:41:25.142Z,6.67
2018-12-27T23:43:54.206Z,6.43
2018-12-27T23:46:23.288Z,5.77
2018-12-27T23:48:52.872Z,7.10
2018-12-27T23:51:21.926Z,5.97
2018-12-27T23:53:50.982Z,6.90
2018-12-27T23:56:20.076Z,6.30
2018-12-27T23:58:49.117Z,6.17
